Time;durP1;ratioP1;P1;durP2;ratioP2;P2;SDS_P1;SDS_P2;PMS_P1;PMS_P2;Temp;Humidity;BMP_temperature;BMP_pressure;BME280_temperature;BME280_humidity;BME280_pressure;Samples;Min_cycle;Max_cycle;Signal;HPM_P1;HPM_P2
2023/04/19 00:02:01;;;;;;;7.38;2.78;;;;;;;4.38;38.24;98096.25;6296183;28;20421;-76
2023/04/19 00:05:05;;;;;;;4.22;2.63;;;;;;;4.41;38.27;98102.25;6296211;28;20048;-74
2023/04/19 00:08:08;;;;;;;4.57;2.38;;;;;;;4.52;38.24;98103.78;6296035;28;20041;-74
2023/04/19 00:11:14;;;;;;;5.55;2.05;;;;;;;4.56;38.14;98095.00;6294916;28;20049;-74
2023/04/19 00:14:17;;;;;;;5.13;2.17;;;;;;;4.53;38.36;98093.34;6278401;28;20056;-74
2023/04/19 00:17:23;;;;;;;5.68;2.05;;;;;;;4.50;38.40;98090.78;6295987;28;20057;-74
2023/04/19 00:20:26;;;;;;;4.15;2.20;;;;;;;4.50;38.43;98096.00;6294427;28;20047;-74
2023/04/19 00:23:31;;;;;;;6.22;1.83;;;;;;;4.49;38.71;98100.34;6295464;28;20056;-74
2023/04/19 00:26:36;;;;;;;4.80;1.90;;;;;;;4.49;38.56;98095.16;6295350;28;20066;-74
2023/04/19 00:29:43;;;;;;;5.18;2.22;;;;;;;4.52;38.67;98088.16;6295505;28;20063;-75
2023/04/19 00:32:47;;;;;;;6.40;2.33;;;;;;;4.57;38.84;98096.75;6295573;28;20040;-74
2023/04/19 00:35:53;;;;;;;5.70;2.35;;;;;;;4.62;38.91;98094.91;6295419;28;20052;-74
2023/04/19 00:38:58;;;;;;;5.03;2.10;;;;;;;4.63;38.66;98096.59;6293558;28;20055;-74
2023/04/19 00:42:04;;;;;;;4.47;2.10;;;;;;;4.64;38.71;98090.50;6293946;28;20056;-74
2023/04/19 00:45:07;;;;;;;7.55;2.20;;;;;;;4.68;38.84;98094.75;6295246;28;20050;-74
2023/04/19 00:48:14;;;;;;;6.47;2.42;;;;;;;4.69;38.95;98094.72;6295352;28;20040;-73
2023/04/19 00:51:19;;;;;;;6.55;1.92;;;;;;;4.67;38.93;98098.25;6295685;28;20129;-73
2023/04/19 00:54:26;;;;;;;7.10;2.53;;;;;;;4.66;39.16;98093.94;6293784;28;20521;-75
2023/04/19 00:57:32;;;;;;;10.07;2.55;;;;;;;4.70;38.98;98103.41;6295242;28;20127;-74
2023/04/19 01:00:37;;;;;;;6.38;2.78;;;;;;;4.70;39.20;98103.41;6295268;28;20044;-75
2023/04/19 01:03:42;;;;;;;5.65;2.38;;;;;;;4.72;39.32;98096.41;6295291;28;20588;-74
2023/04/19 01:06:50;;;;;;;7.32;2.92;;;;;;;4.74;39.07;98102.44;6294933;28;20044;-74
2023/04/19 01:09:54;;;;;;;11.48;3.65;;;;;;;4.76;39.21;98095.47;6294862;28;20041;-73
2023/04/19 01:12:59;;;;;;;13.27;3.50;;;;;;;4.73;39.16;98095.53;6277269;28;20061;-74
2023/04/19 01:16:05;;;;;;;10.98;3.08;;;;;;;4.69;39.52;98088.66;6294566;28;20062;-75
2023/04/19 01:19:09;;;;;;;13.68;3.22;;;;;;;4.66;39.36;98096.53;6293699;28;20064;-75
2023/04/19 01:22:21;;;;;;;5.60;2.92;;;;;;;4.61;39.52;98098.38;6293482;28;20037;-75
2023/04/19 01:25:27;;;;;;;7.30;2.92;;;;;;;4.67;39.38;98103.47;6294704;28;20044;-74
2023/04/19 01:28:32;;;;;;;8.32;3.13;;;;;;;4.72;39.42;98105.06;6294373;28;20044;-75
2023/04/19 01:31:38;;;;;;;11.52;3.67;;;;;;;4.80;39.28;98110.13;6294519;28;20052;-75
2023/04/19 01:34:43;;;;;;;11.13;3.88;;;;;;;4.85;39.62;98112.66;6293096;28;20536;-74
2023/04/19 01:37:49;;;;;;;8.70;3.60;;;;;;;4.85;39.47;98116.13;6302223;28;20044;-74
2023/04/19 01:40:56;;;;;;;6.97;2.90;;;;;;;4.84;39.45;98111.81;6302547;28;20506;-74
2023/04/19 01:44:01;;;;;;;6.80;3.05;;;;;;;4.79;39.46;98118.84;6302488;28;20535;-74
2023/04/19 01:47:07;;;;;;;8.85;3.63;;;;;;;4.73;39.58;98112.03;6302647;28;20496;-74
2023/04/19 01:50:12;;;;;;;7.03;3.58;;;;;;;4.71;39.79;98115.56;6302379;28;20044;-74
2023/04/19 01:53:16;;;;;;;9.32;3.50;;;;;;;4.70;39.47;98119.06;6302490;28;20082;-73
2023/04/19 01:56:21;;;;;;;11.15;3.20;;;;;;;4.76;39.39;98118.94;6302553;28;20051;-74
2023/04/19 01:59:24;;;;;;;8.00;2.83;;;;;;;4.79;39.66;98121.47;6302447;28;20044;-75
2023/04/19 02:02:30;;;;;;;7.70;3.42;;;;;;;4.80;39.59;98124.94;6302660;28;20052;-74
2023/04/19 02:05:39;;;;;;;7.65;3.28;;;;;;;4.85;39.73;98123.94;6302620;28;20051;-74
2023/04/19 02:08:44;;;;;;;5.57;3.13;;;;;;;4.84;39.84;98123.94;6302466;28;20051;-75
2023/04/19 02:11:49;;;;;;;8.77;3.08;;;;;;;4.82;39.87;98115.34;6300380;28;20627;-74
2023/04/19 02:14:58;;;;;;;9.55;4.53;;;;;;;4.94;39.89;98123.72;6302044;28;20059;-74
2023/04/19 02:18:05;;;;;;;10.10;4.25;;;;;;;4.99;39.74;98115.81;6302011;28;20066;-75
2023/04/19 02:21:11;;;;;;;6.07;2.85;;;;;;;4.97;39.94;98107.16;6302681;28;20052;-74
2023/04/19 02:24:19;;;;;;;13.60;3.33;;;;;;;5.16;39.84;98116.28;6302748;28;20054;-73
2023/04/19 02:27:25;;;;;;;5.35;2.78;;;;;;;5.24;39.55;98108.28;6317589;28;20433;-75
2023/04/19 02:30:30;;;;;;;6.30;2.20;;;;;;;5.53;38.94;98111.94;6302262;28;20071;-74
2023/04/19 02:33:35;;;;;;;7.25;2.72;;;;;;;5.73;38.90;98120.09;6300479;28;20044;-74
2023/04/19 02:36:38;;;;;;;;;;;;;;;5.97;38.70;98112.56;6301156;28;20428;-75
2023/04/19 02:39:44;;;;;;;7.78;2.42;;;;;;;6.24;37.86;98127.50;6300674;28;20360;-75
2023/04/19 02:42:51;;;;;;;4.80;2.65;;;;;;;6.43;37.87;98137.47;6301432;28;20498;-75
2023/04/19 02:45:56;;;;;;;10.90;3.53;;;;;;;6.41;38.04;98137.47;6300233;28;20182;-74
2023/04/19 02:49:01;;;;;;;8.45;3.60;;;;;;;6.29;37.92;98141.31;6297110;28;20047;-74
2023/04/19 02:52:06;;;;;;;10.90;4.03;;;;;;;6.39;37.74;98134.03;6298433;28;20042;-74
2023/04/19 02:55:11;;;;;;;13.60;6.10;;;;;;;6.56;37.62;98133.56;6298069;28;20513;-76
2023/04/19 02:58:14;;;;;;;;;;;;;;;6.77;37.30;98136.50;6298097;28;20047;-74
2023/04/19 03:01:18;;;;;;;12.55;3.65;;;;;;;6.89;37.33;98141.34;6298223;28;19966;-76
2023/04/19 03:04:22;;;;;;;;;;;;;;;7.02;36.72;98147.06;6297922;28;20040;-75
2023/04/19 03:07:27;;;;;;;15.88;4.13;;;;;;;7.11;37.04;98147.66;6297246;28;19920;-75
2023/04/19 03:10:30;;;;;;;;;;;;;;;7.28;36.45;98149.75;6298007;28;20044;-74
2023/04/19 03:13:35;;;;;;;6.78;3.10;;;;;;;7.43;36.46;98156.25;6297785;28;20022;-74
2023/04/19 03:16:40;;;;;;;5.05;2.92;;;;;;;7.54;36.05;98156.78;6297536;28;20056;-74
2023/04/19 03:19:48;;;;;;;9.95;3.38;;;;;;;7.65;36.11;98165.16;6297216;28;20051;-74
2023/04/19 03:22:54;;;;;;;10.40;3.25;;;;;;;7.75;36.01;98156.97;6297732;28;20044;-74
2023/04/19 03:25:58;;;;;;;14.75;3.72;;;;;;;7.85;35.86;98161.88;6296979;28;20059;-74
2023/04/19 03:29:01;;;;;;;;;;;;;;;8.07;35.50;98171.66;6296264;28;20070;-74
2023/04/19 03:32:08;;;;;;;12.75;3.60;;;;;;;8.19;35.45;98165.97;6297223;28;19926;-74
2023/04/19 03:35:12;;;;;;;9.40;3.35;;;;;;;8.28;35.19;98167.41;6297037;28;20539;-74
2023/04/19 03:38:17;;;;;;;9.27;3.47;;;;;;;8.39;35.02;98165.31;6295272;28;20096;-74
2023/04/19 03:41:23;;;;;;;;;;;;;;;8.50;34.73;98171.03;6296679;28;20037;-74
2023/04/19 03:44:30;;;;;;;13.57;3.95;;;;;;;8.50;34.60;98163.16;6296661;28;20061;-75
2023/04/19 03:47:34;;;;;;;15.90;3.83;;;;;;;8.76;34.25;98179.72;6296145;28;20043;-74
2023/04/19 03:50:42;;;;;;;11.50;4.30;;;;;;;8.91;34.17;98187.00;6296182;28;20067;-74
2023/04/19 03:53:49;;;;;;;14.13;4.22;;;;;;;8.90;33.94;98182.69;6296069;28;20498;-75
2023/04/19 03:56:54;;;;;;;13.18;3.60;;;;;;;8.94;33.89;98180.78;6296359;28;20036;-75
2023/04/19 03:59:57;;;;;;;;;;;;;;;9.19;33.76;98193.84;6296430;28;20425;-75
2023/04/19 04:03:01;;;;;;;12.75;4.07;;;;;;;9.19;33.43;98183.34;6295967;28;20397;-74
2023/04/19 04:06:06;;;;;;;;;;;;;;;9.30;33.20;98189.06;6296523;28;20125;-73
2023/04/19 04:09:08;;;;;;;15.10;4.07;;;;;;;9.18;33.46;98179.03;6296203;28;19943;-74
2023/04/19 04:12:13;;;;;;;14.20;5.22;;;;;;;9.42;32.91;98188.56;6296154;28;20170;-74
2023/04/19 04:15:18;;;;;;;19.88;5.60;;;;;;;9.46;32.69;98184.06;6295834;28;20060;-75
2023/04/19 04:18:25;;;;;;;20.25;5.78;;;;;;;9.66;32.56;98191.16;6295827;28;20072;-74
2023/04/19 04:21:30;;;;;;;22.17;6.07;;;;;;;9.86;31.98;98188.56;6277851;28;20133;-74
2023/04/19 04:24:40;;;;;;;16.98;5.03;;;;;;;10.03;31.97;98187.03;6294163;28;20067;-73
2023/04/19 04:27:49;;;;;;;14.85;5.65;;;;;;;10.23;31.80;98196.72;6293778;28;20056;-74
2023/04/19 04:30:59;;;;;;;21.05;6.07;;;;;;;10.50;31.54;98189.41;6295316;28;20043;-74
2023/04/19 04:34:05;;;;;;;20.40;6.00;;;;;;;10.72;31.05;98195.44;6295415;28;20045;-75
2023/04/19 04:37:11;;;;;;;20.25;6.88;;;;;;;10.87;31.05;98195.69;6295168;28;20043;-75
2023/04/19 04:40:15;;;;;;;28.38;6.65;;;;;;;11.13;30.58;98189.25;6294270;28;20310;-74
2023/04/19 04:43:23;;;;;;;17.88;5.57;;;;;;;11.40;30.17;98192.38;6294053;28;20418;-75
2023/04/19 04:46:28;;;;;;;14.70;5.60;;;;;;;11.76;29.74;98195.03;6294074;28;20044;-75
2023/04/19 04:49:53;;;;;;;23.15;5.95;;;;;;;12.00;29.29;98187.75;6294691;28;20040;-74
2023/04/19 04:53:29;;;;;;;20.50;4.78;;;;;;;12.34;29.15;98188.66;6293469;28;20049;-75
2023/04/19 04:57:25;;;;;;;23.20;5.75;;;;;;;12.62;28.56;98187.25;6294479;28;20048;-74
2023/04/19 05:00:31;;;;;;;18.13;5.85;;;;;;;12.58;28.25;98139.88;6292854;28;20078;-74
2023/04/19 05:03:42;;;;;;;18.70;5.95;;;;;;;13.30;27.54;98190.66;6294992;28;20052;-74
2023/04/19 05:07:10;;;;;;;18.25;5.82;;;;;;;13.88;26.78;98192.69;6293743;28;20139;-75
2023/04/19 05:10:20;;;;;;;24.98;6.38;;;;;;;14.34;26.30;98191.81;6292871;28;20529;-74
2023/04/19 05:13:28;;;;;;;14.30;6.05;;;;;;;14.74;25.57;98190.31;6294128;28;20040;-74
2023/04/19 05:16:34;;;;;;;19.35;6.72;;;;;;;15.29;24.80;98195.81;6276421;28;20048;-75
2023/04/19 05:19:40;;;;;;;24.33;7.40;;;;;;;15.88;24.21;98199.09;6294964;28;20040;-74
2023/04/19 05:22:45;;;;;;;18.40;6.50;;;;;;;16.94;23.00;98189.34;6294543;28;20041;-76
2023/04/19 05:25:49;;;;;;;18.10;7.90;;;;;;;17.96;22.00;98194.47;6294865;28;20494;-73
2023/04/19 05:28:55;;;;;;;16.00;6.45;;;;;;;19.15;21.15;98187.16;6294540;28;20033;-74
2023/04/19 05:32:00;;;;;;;17.27;6.47;;;;;;;20.45;19.69;98196.25;6293208;28;20072;-75
2023/04/19 05:35:05;;;;;;;20.63;7.13;;;;;;;21.98;18.15;98193.63;6294670;28;20045;-75
2023/04/19 05:38:09;;;;;;;13.93;5.32;;;;;;;23.36;16.68;98196.03;6294120;28;20087;-73
2023/04/19 05:41:14;;;;;;;10.70;5.20;;;;;;;23.89;16.52;98192.66;6293631;28;20052;-74
2023/04/19 05:44:17;;;;;;;13.55;5.50;;;;;;;24.09;15.96;98183.47;6293393;28;20070;-75
2023/04/19 05:47:22;;;;;;;15.90;5.82;;;;;;;25.45;15.44;98192.06;6294190;28;20044;-74
2023/04/19 05:50:26;;;;;;;19.92;6.22;;;;;;;28.21;13.50;98194.81;6294290;28;20040;-74
2023/04/19 05:53:29;;;;;;;;;;;;;;;31.61;13.25;98193.63;6294744;28;20532;-74
2023/04/19 05:56:34;;;;;;;23.45;6.70;;;;;;;32.88;10.91;98196.50;6294408;28;20368;-74
2023/04/19 05:59:39;;;;;;;21.13;7.57;;;;;;;34.16;9.87;98197.91;6294137;28;20041;-74
2023/04/19 06:02:43;;;;;;;18.75;7.40;;;;;;;34.78;9.54;98201.72;6292635;28;20070;-73
2023/04/19 06:05:48;;;;;;;19.70;6.90;;;;;;;36.06;8.54;98186.56;6292848;28;20041;-74
2023/04/19 06:08:55;;;;;;;20.50;7.45;;;;;;;37.42;7.75;98189.47;6292967;28;20040;-74
2023/04/19 06:12:49;;;;;;;20.33;7.63;;;;;;;39.24;7.48;98167.66;6294162;28;20037;-75
2023/04/19 06:15:53;;;;;;;19.13;6.55;;;;;;;40.20;6.64;98179.38;6290062;28;20056;-76
2023/04/19 06:19:20;;;;;;;23.30;6.93;;;;;;;40.92;6.04;98180.91;6293602;28;20040;-74
2023/04/19 06:22:26;;;;;;;18.70;7.10;;;;;;;40.57;6.02;98173.97;6295841;28;20043;-74
2023/04/19 06:25:28;;;;;;;17.40;6.00;;;;;;;41.09;5.66;98169.75;6298432;28;20059;-76
2023/04/19 06:28:32;;;;;;;19.63;5.55;;;;;;;42.21;5.31;98173.09;6280184;28;20065;-74
2023/04/19 06:31:37;;;;;;;18.95;6.20;;;;;;;43.52;4.85;98172.56;6298369;28;20109;-73
2023/04/19 06:34:41;;;;;;;19.73;6.00;;;;;;;44.27;4.56;98166.13;6280343;28;20102;-74
2023/04/19 06:37:46;;;;;;;18.98;5.38;;;;;;;44.71;4.25;98162.53;6297980;28;20052;-73
2023/04/19 06:40:52;;;;;;;17.60;5.35;;;;;;;44.53;3.97;98170.44;6297755;28;20050;-74
2023/04/19 06:44:00;;;;;;;22.77;5.00;;;;;;;44.93;4.10;98164.84;6297789;28;20126;-74
2023/04/19 06:47:04;;;;;;;26.60;5.75;;;;;;;45.26;3.85;98165.94;6298038;28;20135;-74
2023/04/19 06:50:08;;;;;;;17.00;4.28;;;;;;;45.75;3.93;98164.00;6296308;28;20071;-74
2023/04/19 06:53:12;;;;;;;19.63;4.25;;;;;;;46.39;3.78;98167.34;6296596;28;20359;-74
2023/04/19 06:56:17;;;;;;;11.10;3.40;;;;;;;46.74;3.39;98164.00;6297914;28;20045;-73
2023/04/19 06:59:21;;;;;;;10.63;2.92;;;;;;;46.77;3.23;98160.63;6296430;28;20091;-73
2023/04/19 07:02:25;;;;;;;10.57;2.50;;;;;;;46.95;3.58;98149.72;6297578;28;20048;-74
2023/04/19 07:05:30;;;;;;;11.88;2.20;;;;;;;47.03;3.12;98160.16;6295566;28;20036;-74
2023/04/19 07:08:34;;;;;;;12.10;2.03;;;;;;;47.10;3.27;98157.00;6298021;28;20036;-74
2023/04/19 07:11:38;;;;;;;8.43;1.98;;;;;;;47.17;3.00;98157.44;6297383;28;20071;-74
2023/04/19 07:14:42;;;;;;;6.35;1.30;;;;;;;46.19;3.17;98144.22;6295937;28;20056;-74
2023/04/19 07:17:47;;;;;;;4.22;1.30;;;;;;;46.46;3.26;98149.13;6294984;28;20051;-74
2023/04/19 07:20:50;;;;;;;3.70;1.42;;;;;;;46.56;3.21;98145.34;6296228;28;20047;-75
2023/04/19 07:23:54;;;;;;;5.10;1.35;;;;;;;47.31;3.31;98143.50;6295795;28;20048;-74
2023/04/19 07:26:58;;;;;;;3.83;1.08;;;;;;;47.82;2.93;98139.72;6296858;28;20047;-74
2023/04/19 07:30:05;;;;;;;2.58;1.30;;;;;;;47.76;2.79;98140.91;6297377;28;20422;-74
2023/04/19 07:33:09;;;;;;;7.25;1.80;;;;;;;47.05;3.36;98137.59;6296520;28;20036;-74
2023/04/19 07:36:14;;;;;;;6.18;1.88;;;;;;;46.62;3.39;98129.38;6296634;28;20556;-75
2023/04/19 07:39:18;;;;;;;2.67;1.00;;;;;;;47.16;3.29;98134.28;6297055;28;20127;-73
2023/04/19 07:42:23;;;;;;;2.72;1.25;;;;;;;47.23;2.98;98129.16;6296848;28;20052;-74
2023/04/19 07:45:30;;;;;;;5.97;1.48;;;;;;;45.50;3.38;98120.66;6295409;28;20437;-74
2023/04/19 07:48:33;;;;;;;6.90;1.40;;;;;;;42.70;4.24;98121.97;6295011;28;20459;-74
2023/04/19 07:51:37;;;;;;;6.93;1.60;;;;;;;41.65;4.57;98101.03;6295068;28;20051;-75
2023/04/19 07:54:42;;;;;;;8.02;1.75;;;;;;;40.67;5.08;98101.53;6296571;28;20044;-75
2023/04/19 07:57:47;;;;;;;4.45;1.30;;;;;;;42.72;4.57;98109.50;6296168;28;20045;-74
2023/04/19 08:00:52;;;;;;;4.57;1.75;;;;;;;44.72;3.68;98111.41;6295478;28;20414;-74
2023/04/19 08:03:56;;;;;;;6.35;2.17;;;;;;;45.69;3.27;98107.63;6295988;28;20055;-74
2023/04/19 08:07:05;;;;;;;6.03;1.80;;;;;;;46.40;2.99;98110.53;6295995;28;20048;-74
2023/04/19 08:10:12;;;;;;;6.80;1.50;;;;;;;47.02;2.79;98105.56;6296175;28;20573;-74
2023/04/19 08:13:17;;;;;;;8.10;1.95;;;;;;;47.08;2.98;98101.59;6296123;28;20040;-74
2023/04/19 08:16:24;;;;;;;6.28;1.83;;;;;;;45.12;3.56;98099.09;6295294;28;20052;-74
2023/04/19 08:19:27;;;;;;;5.55;1.38;;;;;;;45.06;3.49;98093.88;6296059;28;20052;-74
2023/04/19 08:22:32;;;;;;;3.10;1.67;;;;;;;45.53;3.32;98087.56;6294537;28;20048;-74
2023/04/19 08:25:38;;;;;;;4.50;1.75;;;;;;;46.49;3.05;98094.81;6295431;28;20056;-74
2023/04/19 08:28:43;;;;;;;5.70;1.55;;;;;;;47.80;3.05;98087.03;6295425;28;20052;-74
2023/04/19 08:31:47;;;;;;;8.80;1.85;;;;;;;46.38;3.02;98091.38;6293627;28;20098;-73
2023/04/19 08:34:53;;;;;;;5.32;1.70;;;;;;;46.18;3.12;98086.94;6295181;28;20417;-75
2023/04/19 08:37:56;;;;;;;6.15;1.65;;;;;;;46.40;3.07;98077.13;6295478;28;20055;-74
2023/04/19 08:41:01;;;;;;;6.05;1.50;;;;;;;45.21;3.52;98085.41;6295238;28;20039;-74
2023/04/19 08:44:06;;;;;;;7.53;1.50;;;;;;;44.67;3.43;98078.16;6295260;28;20043;-74
2023/04/19 08:47:11;;;;;;;4.50;1.25;;;;;;;45.66;3.26;98074.84;6294148;28;20066;-74
2023/04/19 08:50:19;;;;;;;3.47;1.27;;;;;;;46.85;2.72;98077.47;6296205;28;20254;-74
2023/04/19 08:53:28;;;;;;;7.47;1.40;;;;;;;44.90;3.48;98080.19;6276816;28;20055;-75
2023/04/19 08:56:32;;;;;;;4.40;1.85;;;;;;;41.72;4.41;98071.19;6294792;28;20055;-75
2023/04/19 08:59:35;;;;;;;6.28;1.90;;;;;;;37.13;5.83;98050.50;6294994;28;20582;-75
2023/04/19 09:02:47;;;;;;;5.82;1.90;;;;;;;36.56;6.54;98049.19;6293379;28;20048;-74
2023/04/19 09:05:51;;;;;;;5.55;1.92;;;;;;;37.10;5.88;98045.50;6293698;28;20178;-75
2023/04/19 09:09:18;;;;;;;5.38;1.80;;;;;;;37.08;6.33;98051.22;6293745;28;20528;-74
2023/04/19 09:12:23;;;;;;;7.55;1.85;;;;;;;38.08;5.98;98054.63;6294251;28;20500;-75
2023/04/19 09:15:37;;;;;;;7.22;2.03;;;;;;;39.44;5.47;98050.66;6294442;28;20072;-74
2023/04/19 09:18:55;;;;;;;7.50;2.33;;;;;;;35.57;7.00;98037.84;6294656;28;20101;-75
2023/04/19 09:22:14;;;;;;;10.43;2.53;;;;;;;32.16;8.67;98031.97;6295174;28;20048;-73
2023/04/19 09:25:27;;;;;;;6.15;2.30;;;;;;;29.36;10.02;98028.47;6294142;28;20429;-75
2023/04/19 09:28:35;;;;;;;7.53;3.50;;;;;;;27.42;10.96;98030.97;6294265;28;20480;-75
2023/04/19 09:31:39;;;;;;;7.57;3.72;;;;;;;25.74;12.14;98024.56;6294626;28;20040;-75
2023/04/19 09:34:58;;;;;;;6.40;3.22;;;;;;;24.16;12.97;98025.88;6294664;28;20032;-75
2023/04/19 09:38:06;;;;;;;6.80;3.00;;;;;;;22.63;14.25;98016.88;6294335;28;20189;-74
2023/04/19 09:41:52;;;;;;;5.65;2.53;;;;;;;22.01;14.35;98026.31;6294461;28;20044;-74
2023/04/19 09:45:01;;;;;;;7.45;2.53;;;;;;;21.68;16.08;98026.66;6294470;28;20045;-74
2023/04/19 09:48:09;;;;;;;3.35;1.70;;;;;;;20.36;17.52;98021.44;6292971;28;20055;-75
2023/04/19 09:51:10;;;;;;;5.65;2.13;;;;;;;19.71;18.67;98023.41;6293552;28;20049;-75
2023/04/19 09:54:23;;;;;;;6.57;2.35;;;;;;;19.78;18.69;98029.06;6294199;28;20052;-74
2023/04/19 09:57:31;;;;;;;5.23;2.20;;;;;;;20.61;18.05;98029.06;6296098;28;20060;-74
2023/04/19 10:00:39;;;;;;;6.60;2.38;;;;;;;21.33;17.65;98023.63;6299263;28;20051;-75
2023/04/19 10:03:43;;;;;;;;;;;;;;;22.48;16.56;98023.72;6298925;28;20048;-74
2023/04/19 10:06:49;;;;;;;4.55;2.33;;;;;;;22.91;16.58;98020.41;6299356;28;19920;-75
2023/04/19 10:09:56;;;;;;;5.25;1.95;;;;;;;22.53;16.59;98016.06;6298782;28;20055;-74
2023/04/19 10:13:06;;;;;;;4.85;2.67;;;;;;;22.04;17.05;98021.50;6299030;28;20032;-75
2023/04/19 10:16:16;;;;;;;6.72;2.55;;;;;;;21.67;17.43;98019.56;6298998;28;20425;-74
2023/04/19 10:19:24;;;;;;;5.07;2.50;;;;;;;21.26;17.83;98016.16;6298025;28;20421;-74
2023/04/19 10:22:35;;;;;;;5.00;2.58;;;;;;;20.99;18.07;98019.47;6296760;28;20050;-74
2023/04/19 10:25:48;;;;;;;14.07;4.60;;;;;;;20.57;18.45;98024.94;6298754;28;20033;-75
2023/04/19 10:28:56;;;;;;;12.07;5.20;;;;;;;19.91;19.09;98021.72;6298371;28;20056;-75
2023/04/19 10:32:15;;;;;;;5.13;3.00;;;;;;;19.28;19.66;98019.78;6298547;28;20044;-76
2023/04/19 10:35:20;;;;;;;7.22;3.10;;;;;;;18.72;20.34;98014.53;6298115;28;20075;-75
2023/04/19 10:38:50;;;;;;;7.63;4.10;;;;;;;18.24;21.13;98017.41;6297890;28;20441;-74
2023/04/19 10:42:01;;;;;;;9.00;3.70;;;;;;;17.86;21.63;98018.56;6298204;28;20049;-75
2023/04/19 10:45:31;;;;;;;7.80;4.65;;;;;;;17.90;21.75;98029.81;6298060;28;20064;-75
2023/04/19 10:48:37;;;;;;;8.60;4.68;;;;;;;17.67;21.64;98011.09;6297549;28;20060;-75
2023/04/19 10:51:55;;;;;;;11.15;4.70;;;;;;;17.67;22.02;98012.91;6297967;28;20032;-74
2023/04/19 10:55:03;;;;;;;9.13;4.82;;;;;;;17.40;22.08;98011.34;6298001;28;20044;-74
2023/04/19 10:58:10;;;;;;;11.43;5.13;;;;;;;17.49;21.98;98021.31;6297842;28;20048;-73
2023/04/19 11:01:44;;;;;;;10.75;4.85;;;;;;;17.32;22.10;98013.72;6298028;28;20044;-75
2023/04/19 11:04:51;;;;;;;;;;;;;;;17.41;21.48;98013.06;6298078;28;20044;-74
2023/04/19 11:07:53;;;;;;;4.50;2.65;;;;;;;17.62;21.72;98009.75;6295731;28;19928;-74
2023/04/19 11:10:58;;;;;;;3.85;2.30;;;;;;;17.30;22.28;98020.13;6297186;28;20036;-74
2023/04/19 11:14:08;;;;;;;3.63;2.67;;;;;;;16.89;22.67;98010.69;6296347;28;20044;-75
2023/04/19 11:17:26;;;;;;;5.13;2.77;;;;;;;16.90;22.69;98018.59;6295833;28;20060;-75
2023/04/19 11:20:28;;;;;;;6.70;3.65;;;;;;;16.89;22.39;98010.69;6295913;28;20063;-74
2023/04/19 11:23:33;;;;;;;9.13;4.50;;;;;;;16.86;22.45;98014.44;6297270;28;20053;-74
2023/04/19 11:26:41;;;;;;;4.82;2.92;;;;;;;16.79;22.05;98010.53;6297278;28;20433;-74
2023/04/19 11:29:51;;;;;;;4.65;2.72;;;;;;;16.50;22.38;98024.06;6297196;28;20044;-76
2023/04/19 11:32:55;;;;;;;3.53;2.05;;;;;;;16.51;22.26;98023.09;6297008;28;20326;-74
2023/04/19 11:35:57;;;;;;;3.17;1.50;;;;;;;16.57;22.18;98011.19;6296016;28;20070;-74
2023/04/19 11:39:02;;;;;;;4.10;2.33;;;;;;;16.72;22.14;98007.41;6296330;28;20146;-74
2023/04/19 11:42:16;;;;;;;5.00;1.80;;;;;;;16.97;22.37;98009.19;6296493;28;20059;-75
2023/04/19 11:45:28;;;;;;;3.95;2.97;;;;;;;16.95;22.27;97989.81;6296416;28;20041;-74
2023/04/19 11:48:35;;;;;;;5.13;3.20;;;;;;;17.15;22.49;97995.50;6296460;28;20041;-75
2023/04/19 11:51:42;;;;;;;4.05;2.55;;;;;;;17.32;22.77;98005.72;6296652;28;20127;-74
2023/04/19 11:54:45;;;;;;;3.35;1.60;;;;;;;17.46;22.15;98002.88;6296074;28;20045;-75
2023/04/19 11:57:51;;;;;;;2.45;1.10;;;;;;;17.25;22.47;97991.22;6296008;28;20584;-75
2023/04/19 12:00:59;;;;;;;4.53;1.77;;;;;;;17.58;22.37;97993.16;6296108;28;20382;-75
2023/04/19 12:04:03;;;;;;;3.92;1.70;;;;;;;18.31;21.74;97991.97;6296316;28;20142;-75
2023/04/19 12:07:05;;;;;;;2.08;1.25;;;;;;;19.04;20.87;97989.75;6295545;28;20086;-75
2023/04/19 12:10:11;;;;;;;2.10;1.25;;;;;;;19.49;20.40;98000.28;6295843;28;20036;-74
2023/04/19 12:13:20;;;;;;;1.88;0.98;;;;;;;19.63;19.93;97993.81;6295954;28;20037;-74
2023/04/19 12:16:27;;;;;;;7.35;1.40;;;;;;;19.28;20.49;97992.25;6295425;28;20079;-73
2023/04/19 12:19:45;;;;;;;1.77;0.98;;;;;;;19.13;20.71;97983.66;6295547;28;20048;-77
2023/04/19 12:22:50;;;;;;;2.55;1.30;;;;;;;19.10;20.82;97989.25;6294925;28;20055;-76
2023/04/19 12:25:56;;;;;;;3.33;1.52;;;;;;;18.93;21.04;97984.44;6295433;28;20044;-74
2023/04/19 12:29:04;;;;;;;6.78;1.90;;;;;;;18.68;21.37;97981.06;6295720;28;20525;-74
2023/04/19 12:32:10;;;;;;;3.28;1.50;;;;;;;18.23;21.92;97982.91;6295547;28;20036;-74
2023/04/19 12:35:14;;;;;;;3.23;1.97;;;;;;;17.87;22.28;97982.97;6295108;28;20581;-75
2023/04/19 12:38:21;;;;;;;2.80;1.60;;;;;;;17.59;22.72;97988.69;6295166;28;20569;-75
2023/04/19 12:41:25;;;;;;;4.38;1.65;;;;;;;17.07;23.43;97988.09;6294401;28;21297;-75
2023/04/19 12:44:30;;;;;;;3.45;1.40;;;;;;;16.67;23.83;97990.09;6295002;28;20548;-75
2023/04/19 12:47:36;;;;;;;3.38;1.42;;;;;;;16.61;24.10;97986.06;6295053;28;20063;-75
2023/04/19 12:50:40;;;;;;;3.60;1.40;;;;;;;16.30;24.40;97982.09;6294835;28;20041;-74
2023/04/19 12:53:48;;;;;;;2.20;1.58;;;;;;;16.12;24.75;97985.06;6294842;28;20048;-74
2023/04/19 12:56:52;;;;;;;3.55;1.38;;;;;;;16.14;24.48;97979.69;6294382;28;20060;-75
2023/04/19 12:59:58;;;;;;;3.65;1.27;;;;;;;16.17;24.54;97976.81;6293674;28;20130;-75
2023/04/19 13:03:05;;;;;;;1.50;1.15;;;;;;;16.11;24.60;97980.72;6293827;28;20036;-74
2023/04/19 13:06:13;;;;;;;3.72;1.73;;;;;;;15.88;25.00;97981.47;6295056;28;20306;-74
2023/04/19 13:09:14;;;;;;;4.00;1.55;;;;;;;15.62;25.31;97984.06;6294691;28;20048;-74
2023/04/19 13:12:16;;;;;;;2.10;1.30;;;;;;;15.51;25.54;97975.97;6294348;28;20052;-74
2023/04/19 13:15:22;;;;;;;2.25;1.25;;;;;;;15.41;25.72;97983.69;6309976;28;20049;-74
2023/04/19 13:18:28;;;;;;;2.60;1.50;;;;;;;15.22;25.98;97984.06;6294781;28;20040;-75
2023/04/19 13:21:38;;;;;;;1.33;1.02;;;;;;;15.07;26.31;97976.28;6294610;28;20044;-75
2023/04/19 13:24:44;;;;;;;3.97;1.30;;;;;;;14.75;26.50;97964.19;6294745;28;20084;-74
2023/04/19 13:27:46;;;;;;;2.15;1.60;;;;;;;14.79;26.53;97970.97;6293859;28;20514;-74
2023/04/19 13:30:52;;;;;;;3.08;1.33;;;;;;;14.86;26.46;97970.56;6294098;28;20498;-74
2023/04/19 13:33:54;;;;;;;2.70;1.50;;;;;;;14.90;26.48;97972.09;6294043;28;20163;-74
2023/04/19 13:37:00;;;;;;;3.22;1.73;;;;;;;14.95;26.57;97970.84;6293811;28;20068;-74
2023/04/19 13:40:04;;;;;;;3.80;1.75;;;;;;;14.89;26.46;97970.38;6294197;28;20060;-75
2023/04/19 13:43:08;;;;;;;4.65;1.50;;;;;;;14.78;26.58;97973.72;6294113;28;20041;-76
2023/04/19 13:46:22;;;;;;;4.03;1.98;;;;;;;14.69;26.86;97964.56;6293133;28;20063;-75
2023/04/19 13:49:26;;;;;;;3.67;2.58;;;;;;;14.52;27.06;97963.00;6294195;28;20053;-75
2023/04/19 13:52:30;;;;;;;3.95;2.03;;;;;;;14.33;27.68;97963.28;6293682;28;20170;-75
2023/04/19 13:55:37;;;;;;;4.20;2.00;;;;;;;14.13;28.61;97967.16;6293767;28;20048;-75
2023/04/19 13:59:29;;;;;;;;;;;;;;;;;;;;;
2023/04/19 14:02:46;;;;;;;8.50;3.55;;;;;;;13.63;29.27;97951.72;6280615;28;20056;-75
2023/04/19 14:05:52;;;;;;;9.40;3.80;;;;;;;13.21;29.84;97956.75;6292539;28;20056;-74
2023/04/19 14:09:04;;;;;;;12.73;3.40;;;;;;;13.02;30.13;97962.28;6293160;28;20055;-75
2023/04/19 14:12:08;;;;;;;;;;;;;;;12.99;29.55;97975.66;6294114;28;20044;-74
2023/04/19 14:15:22;;;;;;;8.77;2.97;;;;;;;13.01;29.77;97970.28;6293706;28;19927;-76
2023/04/19 14:18:26;;;;;;;9.75;4.25;;;;;;;13.07;29.75;97966.44;6293839;28;20060;-76
2023/04/19 14:21:41;;;;;;;7.55;4.13;;;;;;;13.16;29.71;97957.97;6293849;28;20505;-75
2023/04/19 14:24:48;;;;;;;14.70;4.63;;;;;;;13.18;29.69;97967.50;6293436;28;20137;-75
2023/04/19 14:27:52;;;;;;;6.38;3.72;;;;;;;13.13;29.57;97964.28;6293525;28;20537;-75
2023/04/19 14:30:56;;;;;;;11.80;4.53;;;;;;;13.04;29.85;97967.47;6293513;28;20049;-75
2023/04/19 14:34:00;;;;;;;7.63;4.07;;;;;;;12.98;30.02;97971.31;6292973;28;20040;-77
2023/04/19 14:37:05;;;;;;;6.07;3.65;;;;;;;12.91;30.01;97962.03;6293055;28;20045;-75
2023/04/19 14:40:11;;;;;;;5.40;3.20;;;;;;;12.89;30.30;97971.84;6293208;28;20052;-74
2023/04/19 14:43:17;;;;;;;;;;;;;;;12.84;29.63;97971.25;6295384;28;20504;-75
2023/04/19 14:46:23;;;;;;;17.70;6.03;;;;;;;12.74;30.39;97960.34;6296587;28;20335;-75
2023/04/19 14:49:28;;;;;;;14.38;6.95;;;;;;;12.73;30.51;97960.44;6297865;28;20048;-75